Time;durP1;ratioP1;P1;durP2;ratioP2;P2;SDS_P1;SDS_P2;PMS_P1;PMS_P2;Temp;Humidity;BMP_temperature;BMP_pressure;BME280_temperature;BME280_humidity;BME280_pressure;Samples;Min_cycle;Max_cycle;Signal;HPM_P1;HPM_P2
2023/07/13 00:01:17;;;;;;;11.05;2.95;;;15.90;99.90;;;;;;5124758;27;20036;-80
2023/07/13 00:03:43;;;;;;;9.48;1.58;;;16.00;99.90;;;;;;5118749;27;20032;-81
2023/07/13 00:06:09;;;;;;;9.75;1.77;;;16.00;99.90;;;;;;5117487;27;20554;-81
2023/07/13 00:08:35;;;;;;;14.50;2.45;;;16.00;99.90;;;;;;5118130;27;20039;-78
2023/07/13 00:11:01;;;;;;;10.55;2.53;;;16.00;99.90;;;;;;5120984;27;20107;-79
2023/07/13 00:13:27;;;;;;;10.63;2.47;;;16.00;99.90;;;;;;5117396;27;20552;-80
2023/07/13 00:15:53;;;;;;;11.98;2.17;;;16.00;99.90;;;;;;5105702;27;20039;-79
2023/07/13 00:18:20;;;;;;;10.15;2.05;;;16.00;99.90;;;;;;5112303;27;20039;-80
2023/07/13 00:20:46;;;;;;;13.55;2.55;;;16.00;99.90;;;;;;5117182;27;20039;-80
2023/07/13 00:23:11;;;;;;;10.05;2.00;;;16.00;99.90;;;;;;5120976;27;20138;-80
2023/07/13 00:25:37;;;;;;;8.73;2.08;;;16.10;99.90;;;;;;5117154;27;20477;-81
2023/07/13 00:28:02;;;;;;;14.85;2.72;;;16.10;99.90;;;;;;5119001;27;20051;-81
2023/07/13 00:30:28;;;;;;;14.00;3.08;;;16.10;99.90;;;;;;5114717;27;20055;-81
2023/07/13 00:32:53;;;;;;;9.20;2.13;;;16.20;99.90;;;;;;5119734;27;20039;-80
2023/07/13 00:35:19;;;;;;;14.68;2.90;;;16.20;99.90;;;;;;5117938;27;20046;-81
2023/07/13 00:37:45;;;;;;;8.90;1.92;;;16.20;99.90;;;;;;5108630;27;20038;-80
2023/07/13 00:40:15;;;;;;;16.48;2.38;;;16.20;99.90;;;;;;5114774;27;20028;-81
2023/07/13 00:42:41;;;;;;;9.02;1.92;;;16.20;99.90;;;;;;5114441;27;20082;-79
2023/07/13 00:45:26;;;;;;;12.80;3.15;;;16.20;99.90;;;;;;5118658;27;20036;-80
2023/07/13 00:47:53;;;;;;;13.68;2.17;;;16.20;99.90;;;;;;5116218;27;20055;-79
2023/07/13 00:50:21;;;;;;;7.97;2.10;;;16.20;99.90;;;;;;5120195;27;20127;-80
2023/07/13 00:52:50;;;;;;;11.57;2.70;;;16.30;99.90;;;;;;5116942;27;20050;-78
2023/07/13 00:55:17;;;;;;;14.50;2.67;;;16.30;99.90;;;;;;5113875;27;20103;-78
2023/07/13 00:57:44;;;;;;;10.38;2.53;;;16.30;99.90;;;;;;5118619;27;20046;-79
2023/07/13 01:00:11;;;;;;;10.48;2.88;;;16.30;99.90;;;;;;5119655;27;20055;-81
2023/07/13 01:02:43;;;;;;;14.18;2.88;;;16.30;99.90;;;;;;5117070;27;20053;-80
2023/07/13 01:05:11;;;;;;;11.75;3.05;;;16.30;99.90;;;;;;5122521;27;20146;-78
2023/07/13 01:07:37;;;;;;;12.52;2.35;;;16.30;99.90;;;;;;5114848;27;20047;-81
2023/07/13 01:10:03;;;;;;;11.77;2.00;;;16.30;99.90;;;;;;5096158;28;20430;-81
2023/07/13 01:12:30;;;;;;;11.38;2.22;;;16.20;99.90;;;;;;5114965;27;20047;-79
2023/07/13 01:15:00;;;;;;;7.10;1.92;;;16.30;99.90;;;;;;5116472;27;20082;-81
2023/07/13 01:17:27;;;;;;;9.52;2.30;;;16.30;99.90;;;;;;5114545;27;20063;-80
2023/07/13 01:19:53;;;;;;;12.38;3.58;;;16.20;99.90;;;;;;5116261;27;20044;-81
2023/07/13 01:22:19;;;;;;;12.13;2.65;;;16.20;99.90;;;;;;5110702;27;20747;-81
2023/07/13 01:24:48;;;;;;;14.57;2.78;;;16.30;99.90;;;;;;5118543;27;20028;-81
2023/07/13 01:27:16;;;;;;;7.20;1.80;;;16.30;99.90;;;;;;5118305;27;20047;-80
2023/07/13 01:29:46;;;;;;;12.98;2.33;;;16.20;99.90;;;;;;5122942;27;20085;-79
2023/07/13 01:32:15;;;;;;;13.52;2.58;;;16.30;99.90;;;;;;5117047;27;20036;-80
2023/07/13 01:34:42;;;;;;;11.02;2.53;;;16.20;99.90;;;;;;5117785;27;20055;-81
2023/07/13 01:37:08;;;;;;;14.35;3.08;;;16.20;99.90;;;;;;5117616;27;20044;-81
2023/07/13 01:39:34;;;;;;;7.13;2.28;;;16.20;99.90;;;;;;5109881;27;20067;-78
2023/07/13 01:42:00;;;;;;;13.98;2.30;;;16.20;99.90;;;;;;5119118;27;20070;-81
2023/07/13 01:44:25;;;;;;;11.27;2.83;;;16.10;99.90;;;;;;5121844;27;20097;-80
2023/07/13 01:46:51;;;;;;;9.77;2.20;;;16.20;99.90;;;;;;5115672;27;20063;-80
2023/07/13 01:49:17;;;;;;;9.95;2.15;;;16.10;99.90;;;;;;5114805;27;20031;-80
2023/07/13 01:51:42;;;;;;;12.27;2.38;;;16.10;99.90;;;;;;5116520;27;20039;-81
2023/07/13 01:54:08;;;;;;;11.07;2.13;;;16.10;99.90;;;;;;5114226;27;20584;-80
2023/07/13 01:56:33;;;;;;;14.10;2.58;;;16.10;99.90;;;;;;5113436;27;20502;-81
2023/07/13 01:58:59;;;;;;;9.73;1.98;;;16.00;99.90;;;;;;5112330;27;20126;-80
2023/07/13 02:01:25;;;;;;;6.72;2.70;;;16.10;99.90;;;;;;5114866;27;20035;-80
2023/07/13 02:03:51;;;;;;;11.27;2.65;;;16.00;99.90;;;;;;5122161;27;20039;-79
2023/07/13 02:06:17;;;;;;;10.52;2.03;;;16.00;99.90;;;;;;5114504;27;20506;-81
2023/07/13 02:08:42;;;;;;;12.50;2.30;;;16.00;99.90;;;;;;5113144;27;20041;-81
2023/07/13 02:11:08;;;;;;;11.15;2.35;;;16.00;99.90;;;;;;5117545;27;20050;-81
2023/07/13 02:13:34;;;;;;;11.73;1.80;;;15.90;99.90;;;;;;5119200;27;20061;-78
2023/07/13 02:16:00;;;;;;;9.70;2.72;;;16.00;99.90;;;;;;5115227;27;20062;-81
2023/07/13 02:18:26;;;;;;;8.35;2.72;;;15.90;99.90;;;;;;5113928;27;20036;-80
2023/07/13 02:20:52;;;;;;;11.60;3.33;;;15.90;99.90;;;;;;5119675;27;20481;-80
2023/07/13 02:23:17;;;;;;;13.13;3.13;;;15.90;99.90;;;;;;5114784;27;20044;-80
2023/07/13 02:25:43;;;;;;;8.85;2.10;;;15.80;99.90;;;;;;5118376;27;20031;-80
2023/07/13 02:28:08;;;;;;;8.23;2.75;;;15.80;99.90;;;;;;5117436;27;20134;-80
2023/07/13 02:30:35;;;;;;;10.55;2.30;;;15.80;99.90;;;;;;5115620;27;20501;-80
2023/07/13 02:33:00;;;;;;;10.65;1.92;;;15.80;99.90;;;;;;5114629;27;20071;-80
2023/07/13 02:35:26;;;;;;;12.20;2.50;;;15.80;99.90;;;;;;5119741;27;20092;-80
2023/07/13 02:37:52;;;;;;;11.05;2.53;;;15.80;99.90;;;;;;5121135;27;20574;-80
2023/07/13 02:40:17;;;;;;;7.65;2.30;;;15.70;99.90;;;;;;5118553;27;20077;-80
2023/07/13 02:42:43;;;;;;;14.27;2.78;;;15.70;99.90;;;;;;5110693;27;20040;-80
2023/07/13 02:45:09;;;;;;;13.45;2.88;;;15.60;99.90;;;;;;5120070;27;20070;-81
2023/07/13 02:47:35;;;;;;;10.55;2.50;;;15.60;99.90;;;;;;5109482;27;20039;-80
2023/07/13 02:50:02;;;;;;;11.82;2.50;;;15.70;99.90;;;;;;5119592;27;20057;-81
2023/07/13 02:52:27;;;;;;;11.77;2.80;;;15.60;99.90;;;;;;5117148;27;20054;-81
2023/07/13 02:54:53;;;;;;;13.30;2.13;;;15.50;99.90;;;;;;5118226;27;20050;-81
2023/07/13 02:57:19;;;;;;;8.32;2.17;;;15.50;99.90;;;;;;5115601;27;20401;-80
2023/07/13 02:59:44;;;;;;;12.88;2.53;;;15.50;99.90;;;;;;5119574;27;20055;-81
2023/07/13 03:02:10;;;;;;;14.52;2.85;;;15.40;99.90;;;;;;5116320;27;20043;-81
2023/07/13 03:04:36;;;;;;;7.57;2.20;;;15.40;99.90;;;;;;5114268;27;20475;-80
2023/07/13 03:07:03;;;;;;;10.00;2.63;;;15.50;99.90;;;;;;5111920;27;20822;-81
2023/07/13 03:09:30;;;;;;;11.80;2.30;;;15.40;99.90;;;;;;5117386;27;20497;-78
2023/07/13 03:11:56;;;;;;;8.55;2.97;;;15.40;99.90;;;;;;5117699;27;20130;-80
2023/07/13 03:14:24;;;;;;;11.77;2.88;;;15.40;99.90;;;;;;5114345;27;20138;-80
2023/07/13 03:16:50;;;;;;;14.63;3.55;;;15.40;99.90;;;;;;5111871;27;20048;-80
2023/07/13 03:19:15;;;;;;;12.32;2.63;;;15.40;99.90;;;;;;5109296;28;20039;-81
2023/07/13 03:21:41;;;;;;;8.25;2.10;;;15.40;99.90;;;;;;5117757;27;20040;-81
2023/07/13 03:24:07;;;;;;;11.98;2.38;;;15.40;99.90;;;;;;5120928;28;20044;-80
2023/07/13 03:26:32;;;;;;;11.65;2.88;;;15.40;99.90;;;;;;5114654;27;20059;-81
2023/07/13 03:28:58;;;;;;;11.30;2.03;;;15.40;99.90;;;;;;5109436;28;20901;-81
2023/07/13 03:31:29;;;;;;;10.40;3.03;;;15.40;99.90;;;;;;5114795;27;20092;-80
2023/07/13 03:33:57;;;;;;;11.52;2.13;;;15.40;99.90;;;;;;5119792;28;20045;-80
2023/07/13 03:36:25;;;;;;;12.40;2.63;;;15.40;99.90;;;;;;5117347;27;20032;-80
2023/07/13 03:38:55;;;;;;;13.48;2.72;;;15.40;99.90;;;;;;5115936;28;20085;-81
2023/07/13 03:41:21;;;;;;;13.18;2.45;;;15.50;99.90;;;;;;5114564;28;20051;-80
2023/07/13 03:43:49;;;;;;;13.10;2.92;;;15.50;99.90;;;;;;5111632;28;20023;-80
2023/07/13 03:46:16;;;;;;;10.90;2.72;;;15.50;99.90;;;;;;5099048;28;20082;-80
2023/07/13 03:48:44;;;;;;;11.15;2.70;;;15.50;99.90;;;;;;5111273;28;20036;-80
2023/07/13 03:51:10;;;;;;;10.32;2.88;;;15.50;99.90;;;;;;5117623;28;20038;-80
2023/07/13 03:53:39;;;;;;;11.48;2.88;;;15.50;99.90;;;;;;5114158;27;20157;-77
2023/07/13 03:56:05;;;;;;;12.85;3.10;;;15.50;99.90;;;;;;5119725;28;20096;-79
2023/07/13 03:58:33;;;;;;;7.82;2.25;;;15.60;99.90;;;;;;5111194;28;20040;-78
2023/07/13 04:01:00;;;;;;;15.38;3.45;;;15.50;99.90;;;;;;5106327;28;20066;-81
2023/07/13 04:03:27;;;;;;;12.77;2.45;;;15.50;99.90;;;;;;5120058;27;20082;-81
2023/07/13 04:05:54;;;;;;;11.15;2.60;;;15.50;99.90;;;;;;5106335;27;20048;-78
2023/07/13 04:08:20;;;;;;;12.98;3.30;;;15.60;99.90;;;;;;5107139;28;20083;-81
2023/07/13 04:10:46;;;;;;;10.60;3.00;;;15.60;99.90;;;;;;5111393;28;20066;-81
2023/07/13 04:13:11;;;;;;;11.52;3.05;;;15.60;99.90;;;;;;5119610;28;20389;-80
2023/07/13 04:15:38;;;;;;;10.63;2.55;;;15.60;99.90;;;;;;5112223;28;20135;-81
2023/07/13 04:18:04;;;;;;;12.60;2.80;;;15.70;99.90;;;;;;5109506;28;20473;-81
2023/07/13 04:20:30;;;;;;;7.28;2.22;;;15.80;99.90;;;;;;5119112;28;20188;-80
2023/07/13 04:22:55;;;;;;;10.57;2.90;;;16.00;99.90;;;;;;5115075;28;20405;-81
2023/07/13 04:25:21;;;;;;;12.07;2.90;;;16.30;99.90;;;;;;5111950;28;20055;-77
2023/07/13 04:27:47;;;;;;;12.57;2.78;;;16.40;99.90;;;;;;5109346;28;20058;-78
2023/07/13 04:30:12;;;;;;;8.73;2.33;;;16.30;99.90;;;;;;5111330;28;20040;-80
2023/07/13 04:32:38;;;;;;;15.25;2.97;;;16.40;99.90;;;;;;5112460;28;20048;-79
2023/07/13 04:35:04;;;;;;;12.20;3.25;;;16.20;99.90;;;;;;5107255;28;20054;-80
2023/07/13 04:37:30;;;;;;;8.73;2.35;;;16.20;99.90;;;;;;5113308;27;20412;-80
2023/07/13 04:39:55;;;;;;;12.43;2.95;;;16.30;99.90;;;;;;5117720;27;20046;-78
2023/07/13 04:42:21;;;;;;;9.82;2.60;;;16.30;99.90;;;;;;5116440;27;20044;-78
2023/07/13 04:44:51;;;;;;;9.63;2.35;;;16.40;99.90;;;;;;5106340;27;20043;-80
2023/07/13 04:47:17;;;;;;;10.07;2.42;;;16.40;99.90;;;;;;5113964;27;20043;-80
2023/07/13 04:49:43;;;;;;;13.95;2.70;;;16.50;99.90;;;;;;5115725;27;20114;-78
2023/07/13 04:52:09;;;;;;;8.35;2.08;;;16.50;99.90;;;;;;5116960;27;20044;-79
2023/07/13 04:54:35;;;;;;;8.40;2.13;;;16.50;99.90;;;;;;5111445;27;20328;-77
2023/07/13 04:57:00;;;;;;;9.90;2.88;;;16.50;99.90;;;;;;5109687;27;20635;-79
2023/07/13 04:59:26;;;;;;;15.20;3.58;;;16.50;99.90;;;;;;5112779;27;20035;-80
2023/07/13 05:01:53;;;;;;;10.60;2.50;;;16.50;99.90;;;;;;5119014;27;20034;-80
2023/07/13 05:04:18;;;;;;;11.57;4.18;;;16.60;99.90;;;;;;5116737;27;20031;-81
2023/07/13 05:06:44;;;;;;;9.27;2.90;;;16.80;99.90;;;;;;5108426;27;20054;-80
2023/07/13 05:09:09;;;;;;;11.27;2.70;;;17.00;99.90;;;;;;5125954;27;20047;-79
2023/07/13 05:11:37;;;;;;;9.13;2.42;;;17.10;99.90;;;;;;5118479;27;20121;-81
2023/07/13 05:14:03;;;;;;;11.48;2.78;;;17.20;99.90;;;;;;5104008;28;20042;-80
2023/07/13 05:16:28;;;;;;;13.45;2.55;;;17.30;99.90;;;;;;5112976;27;20039;-81
2023/07/13 05:18:54;;;;;;;13.77;2.78;;;17.30;99.90;;;;;;5115559;27;20054;-79
2023/07/13 05:21:20;;;;;;;14.40;2.67;;;17.40;99.90;;;;;;5120328;27;20039;-79
2023/07/13 05:23:46;;;;;;;8.70;2.30;;;18.00;99.90;;;;;;5120567;27;20114;-77
2023/07/13 05:26:12;;;;;;;10.98;2.28;;;19.40;99.90;;;;;;5112702;27;20036;-79
2023/07/13 05:28:38;;;;;;;12.93;3.25;;;21.00;99.90;;;;;;5115516;27;20031;-80
2023/07/13 05:31:05;;;;;;;7.18;1.90;;;22.10;99.90;;;;;;5102754;27;20537;-79
2023/07/13 05:33:30;;;;;;;6.32;1.85;;;23.00;99.90;;;;;;5118291;27;20058;-78
2023/07/13 05:35:56;;;;;;;8.25;2.30;;;23.90;99.90;;;;;;5116451;27;20143;-79
2023/07/13 05:38:22;;;;;;;7.95;2.03;;;24.50;99.90;;;;;;5122329;27;20036;-79
2023/07/13 05:40:47;;;;;;;8.25;2.50;;;25.00;99.90;;;;;;5115189;27;20583;-79
2023/07/13 05:43:13;;;;;;;13.00;2.65;;;24.80;99.90;;;;;;5117476;27;20412;-78
2023/07/13 05:45:39;;;;;;;7.10;2.00;;;24.40;99.90;;;;;;5116514;27;20118;-78
2023/07/13 05:48:05;;;;;;;9.20;2.78;;;24.10;99.90;;;;;;5120591;27;20047;-79
2023/07/13 05:50:31;;;;;;;11.40;2.85;;;23.60;99.90;;;;;;5122111;27;20038;-79
2023/07/13 05:52:57;;;;;;;9.82;2.78;;;23.60;99.90;;;;;;5116073;27;20054;-78
2023/07/13 05:55:22;;;;;;;7.95;2.15;;;23.40;99.90;;;;;;5111560;27;20131;-79
2023/07/13 05:57:48;;;;;;;9.95;2.40;;;23.30;99.90;;;;;;5109003;27;20032;-79
2023/07/13 06:00:14;;;;;;;9.23;3.03;;;23.30;99.90;;;;;;5114549;27;20046;-80
2023/07/13 06:02:40;;;;;;;10.18;2.42;;;23.20;99.90;;;;;;5111892;27;20125;-80
2023/07/13 06:05:06;;;;;;;8.40;2.65;;;23.30;99.90;;;;;;5116053;27;20447;-76
2023/07/13 06:07:31;;;;;;;7.60;2.13;;;23.40;99.90;;;;;;5115775;27;20054;-79
2023/07/13 06:09:59;;;;;;;11.98;3.17;;;23.40;99.90;;;;;;5113445;27;20381;-79
2023/07/13 06:12:25;;;;;;;9.85;2.92;;;23.60;99.90;;;;;;5123812;27;20031;-80
2023/07/13 06:14:50;;;;;;;7.95;2.05;;;23.60;99.90;;;;;;5122098;27;20387;-80
2023/07/13 06:17:16;;;;;;;12.90;3.30;;;23.60;99.90;;;;;;5116548;27;20059;-80
2023/07/13 06:19:41;;;;;;;12.38;1.90;;;23.60;99.90;;;;;;5116123;27;20032;-81
2023/07/13 06:22:07;;;;;;;7.55;2.05;;;23.70;99.90;;;;;;5120632;27;20079;-81
2023/07/13 06:24:32;;;;;;;8.52;2.47;;;23.80;99.90;;;;;;5121426;27;20470;-81
2023/07/13 06:26:58;;;;;;;8.00;2.83;;;23.70;99.90;;;;;;5119354;27;20054;-81
2023/07/13 06:29:26;;;;;;;6.40;1.92;;;23.80;99.90;;;;;;5119641;27;20179;-81
2023/07/13 06:31:52;;;;;;;12.35;2.67;;;23.80;99.90;;;;;;5125171;27;20164;-82
2023/07/13 06:34:18;;;;;;;10.38;2.20;;;23.80;99.90;;;;;;5114851;27;20146;-82
2023/07/13 06:36:44;;;;;;;6.80;1.80;;;23.90;99.90;;;;;;5119870;27;20039;-81
2023/07/13 06:39:10;;;;;;;8.73;1.85;;;24.00;99.90;;;;;;5112890;27;20056;-83
2023/07/13 06:41:35;;;;;;;6.25;1.52;;;24.00;99.90;;;;;;5118696;27;20044;-82
2023/07/13 06:44:01;;;;;;;6.10;1.95;;;23.90;99.90;;;;;;5118512;27;20046;-81
2023/07/13 06:46:29;;;;;;;10.32;2.30;;;24.00;99.90;;;;;;5117177;27;20155;-81
2023/07/13 06:48:55;;;;;;;8.95;2.63;;;23.90;99.90;;;;;;5113270;27;20036;-81
2023/07/13 06:51:21;;;;;;;12.45;1.75;;;24.00;99.90;;;;;;5117071;27;20032;-81
2023/07/13 06:53:47;;;;;;;7.88;2.03;;;24.20;99.90;;;;;;5115458;27;20127;-82
2023/07/13 06:56:13;;;;;;;8.32;1.95;;;23.90;99.90;;;;;;5120105;27;20123;-82
2023/07/13 06:58:38;;;;;;;7.47;1.85;;;23.70;99.90;;;;;;5118292;27;20043;-82
2023/07/13 07:01:05;;;;;;;6.75;2.00;;;23.50;99.90;;;;;;5118051;27;20460;-82
2023/07/13 07:03:30;;;;;;;7.90;2.42;;;23.30;99.90;;;;;;5114413;27;20038;-82
2023/07/13 07:06:13;;;;;;;7.72;2.35;;;23.10;99.90;;;;;;5117251;27;20122;-82
2023/07/13 07:08:39;;;;;;;9.93;2.05;;;22.80;99.90;;;;;;5114474;27;20066;-82
2023/07/13 07:11:05;;;;;;;11.35;2.35;;;22.80;99.90;;;;;;5113319;27;20489;-82
2023/07/13 07:13:30;;;;;;;8.23;2.05;;;22.30;99.90;;;;;;5121765;27;20031;-82
2023/07/13 07:15:56;;;;;;;7.28;1.70;;;22.40;99.90;;;;;;5120285;27;20044;-81
2023/07/13 07:18:21;;;;;;;9.25;2.10;;;21.90;99.90;;;;;;5113007;28;20039;-82
2023/07/13 07:20:49;;;;;;;8.70;2.13;;;21.80;99.90;;;;;;5121237;27;20491;-82
2023/07/13 07:23:14;;;;;;;9.95;2.45;;;21.90;99.90;;;;;;5117015;27;20045;-80
2023/07/13 07:25:41;;;;;;;5.28;2.10;;;22.20;99.90;;;;;;5121916;28;20126;-82
2023/07/13 07:28:08;;;;;;;7.82;1.60;;;22.50;99.90;;;;;;5109846;28;20718;-83
2023/07/13 07:30:33;;;;;;;8.55;2.15;;;22.30;99.90;;;;;;5111445;28;20043;-82
2023/07/13 07:32:59;;;;;;;12.00;2.92;;;22.20;99.90;;;;;;5119852;28;20066;-82
2023/07/13 07:35:24;;;;;;;13.90;3.53;;;21.90;99.90;;;;;;5118122;27;20035;-82
2023/07/13 07:37:50;;;;;;;12.65;3.25;;;21.60;99.90;;;;;;5116431;28;20031;-82
2023/07/13 07:40:16;;;;;;;10.02;2.45;;;21.40;99.90;;;;;;5105535;28;20126;-82
2023/07/13 07:42:41;;;;;;;9.32;2.75;;;21.20;99.90;;;;;;5118833;28;20054;-82
2023/07/13 07:45:07;;;;;;;9.10;2.92;;;20.90;99.90;;;;;;5115721;28;20055;-83
2023/07/13 07:47:33;;;;;;;9.63;2.63;;;20.80;99.90;;;;;;5114587;28;20134;-82
2023/07/13 07:49:58;;;;;;;7.72;2.88;;;20.70;99.90;;;;;;5107507;28;20404;-83
2023/07/13 07:52:24;;;;;;;11.85;2.97;;;20.80;99.90;;;;;;5114580;28;20043;-83
2023/07/13 07:54:50;;;;;;;13.70;2.88;;;20.90;99.90;;;;;;5118714;28;20050;-82
2023/07/13 07:57:15;;;;;;;9.52;2.78;;;20.90;99.90;;;;;;5112489;28;20039;-82
2023/07/13 07:59:41;;;;;;;9.18;3.25;;;21.00;99.90;;;;;;5107775;28;20181;-82
2023/07/13 08:02:08;;;;;;;13.23;2.97;;;21.10;99.90;;;;;;5117201;28;20046;-82
2023/07/13 08:04:34;;;;;;;7.40;2.20;;;21.30;99.90;;;;;;5115880;28;20050;-82
2023/07/13 08:07:02;;;;;;;11.32;2.55;;;21.30;99.90;;;;;;5117225;28;20047;-83
2023/07/13 08:09:28;;;;;;;10.60;2.97;;;21.30;99.90;;;;;;5113566;28;20035;-82
2023/07/13 08:11:54;;;;;;;14.05;3.88;;;21.20;99.90;;;;;;5113374;27;20133;-83
2023/07/13 08:14:20;;;;;;;10.80;3.20;;;21.00;99.90;;;;;;5116723;27;20118;-83
2023/07/13 08:16:45;;;;;;;11.73;2.95;;;20.80;99.90;;;;;;5121525;27;20176;-82
2023/07/13 08:19:11;;;;;;;11.95;3.03;;;20.60;99.90;;;;;;5117623;27;20047;-82
2023/07/13 08:21:37;;;;;;;12.80;3.90;;;20.40;99.90;;;;;;5118042;27;20555;-82
2023/07/13 08:24:03;;;;;;;12.85;4.63;;;20.20;99.90;;;;;;5118159;27;20382;-81
2023/07/13 08:26:28;;;;;;;11.75;3.70;;;20.00;99.90;;;;;;5115680;27;20065;-82
2023/07/13 08:28:54;;;;;;;12.65;4.38;;;19.80;99.90;;;;;;5122245;27;20060;-82
2023/07/13 08:31:19;;;;;;;14.48;4.18;;;19.50;99.90;;;;;;5119173;27;20083;-82
2023/07/13 08:33:45;;;;;;;11.05;3.72;;;19.40;99.90;;;;;;5123559;27;20023;-83
2023/07/13 08:36:11;;;;;;;9.32;2.10;;;19.20;99.90;;;;;;5124694;27;20054;-82
2023/07/13 08:38:36;;;;;;;7.22;1.73;;;19.00;99.90;;;;;;5097273;27;20043;-82
2023/07/13 08:41:11;;;;;;;6.18;1.60;;;18.70;99.90;;;;;;5119792;27;20075;-83
2023/07/13 08:43:37;;;;;;;8.20;2.95;;;18.50;99.90;;;;;;5124912;27;20623;-82
2023/07/13 08:46:25;;;;;;;8.93;2.05;;;18.30;99.90;;;;;;5119714;27;20042;-82
2023/07/13 08:48:57;;;;;;;5.13;1.80;;;18.20;99.90;;;;;;5121443;27;20047;-83
2023/07/13 08:51:52;;;;;;;5.72;1.88;;;18.20;99.90;;;;;;5120932;27;20039;-83
2023/07/13 08:54:27;;;;;;;5.90;2.25;;;18.30;99.90;;;;;;5118859;27;20050;-83
2023/07/13 08:56:54;;;;;;;4.55;1.90;;;18.30;99.90;;;;;;5120243;27;20039;-82
2023/07/13 08:59:25;;;;;;;6.30;2.00;;;18.30;99.90;;;;;;5116667;27;20804;-82
2023/07/13 09:02:11;;;;;;;8.93;2.10;;;18.20;99.90;;;;;;5113462;27;20047;-82
2023/07/13 09:04:49;;;;;;;5.63;2.08;;;18.10;99.90;;;;;;5126731;27;20115;-83
2023/07/13 09:07:33;;;;;;;5.30;2.00;;;18.20;99.90;;;;;;5108850;27;20517;-82
2023/07/13 09:10:20;;;;;;;7.10;2.55;;;18.10;99.90;;;;;;5115056;27;20054;-82
2023/07/13 09:12:51;;;;;;;9.73;2.40;;;18.20;99.90;;;;;;5119067;27;20070;-82
2023/07/13 09:15:25;;;;;;;8.68;2.95;;;18.20;99.90;;;;;;5120983;27;20031;-82
2023/07/13 09:17:52;;;;;;;5.82;2.75;;;18.20;99.90;;;;;;5121667;27;20385;-82
2023/07/13 09:20:30;;;;;;;5.97;2.13;;;18.20;99.90;;;;;;5121917;27;20675;-82
2023/07/13 09:22:59;;;;;;;9.45;2.85;;;18.20;99.90;;;;;;5110106;27;20048;-82
2023/07/13 09:25:36;;;;;;;7.45;2.13;;;18.10;99.90;;;;;;5116308;27;20043;-81
2023/07/13 09:28:22;;;;;;;5.65;2.10;;;18.00;99.90;;;;;;5122142;27;20081;-82
2023/07/13 09:31:00;;;;;;;6.82;1.83;;;17.80;99.90;;;;;;5117868;27;20061;-82
2023/07/13 09:33:29;;;;;;;2.65;1.13;;;17.60;99.90;;;;;;5116977;27;20417;-82
2023/07/13 09:35:55;;;;;;;4.35;1.23;;;17.50;99.90;;;;;;5117133;27;20051;-83
2023/07/13 09:38:25;;;;;;;2.63;1.00;;;17.70;99.90;;;;;;5121819;27;20039;-82
2023/07/13 09:41:08;;;;;;;2.55;0.93;;;18.00;99.90;;;;;;5118019;27;20429;-82
2023/07/13 09:43:34;;;;;;;2.88;0.82;;;18.40;99.90;;;;;;5110790;27;20051;-83
2023/07/13 09:46:00;;;;;;;4.22;1.73;;;18.60;99.90;;;;;;5119705;27;20055;-82
2023/07/13 09:48:39;;;;;;;2.08;1.25;;;18.90;99.90;;;;;;5120361;27;20066;-82
2023/07/13 09:51:13;;;;;;;1.27;0.85;;;19.30;99.90;;;;;;5111758;27;20397;-82
2023/07/13 09:53:43;;;;;;;1.75;0.90;;;19.70;99.90;;;;;;5119342;27;20032;-83
2023/07/13 09:56:23;;;;;;;7.15;1.17;;;20.00;99.90;;;;;;5111388;27;20502;-84
2023/07/13 09:58:49;;;;;;;3.15;1.23;;;20.30;99.90;;;;;;5116102;27;20055;-85
2023/07/13 10:01:15;;;;;;;3.03;1.08;;;20.60;99.90;;;;;;5115083;27;20031;-83
2023/07/13 10:03:53;;;;;;;4.20;1.17;;;20.90;99.90;;;;;;5114228;27;20355;-82
2023/07/13 10:06:26;;;;;;;1.45;0.93;;;21.10;99.90;;;;;;5114601;27;20128;-83
2023/07/13 10:08:52;;;;;;;1.17;0.85;;;21.20;99.90;;;;;;5118876;27;20046;-84
2023/07/13 10:11:24;;;;;;;4.68;0.90;;;21.40;99.90;;;;;;5113260;27;20058;-83
2023/07/13 10:13:59;;;;;;;2.67;1.00;;;21.50;99.90;;;;;;5114489;27;20497;-84
2023/07/13 10:16:27;;;;;;;3.75;1.10;;;21.90;99.90;;;;;;5121738;27;20043;-83
2023/07/13 10:18:57;;;;;;;2.50;1.20;;;22.00;99.90;;;;;;5115654;27;20031;-84
2023/07/13 10:21:35;;;;;;;4.07;1.30;;;22.00;99.90;;;;;;5116539;27;20114;-83
2023/07/13 10:24:22;;;;;;;3.17;1.48;;;22.00;99.90;;;;;;5113515;27;20054;-84
2023/07/13 10:27:07;;;;;;;4.70;1.60;;;22.20;99.90;;;;;;5113621;27;20039;-84
2023/07/13 10:29:48;;;;;;;3.00;1.38;;;22.50;99.90;;;;;;5119261;27;20043;-83
2023/07/13 10:32:13;;;;;;;3.53;1.58;;;22.60;99.90;;;;;;5111580;27;20455;-83
2023/07/13 10:34:44;;;;;;;4.75;1.63;;;22.80;99.90;;;;;;5116544;27;20118;-82
2023/07/13 10:37:20;;;;;;;3.35;1.85;;;22.90;99.90;;;;;;5115037;27;20036;-84
2023/07/13 10:39:46;;;;;;;6.38;1.90;;;23.20;99.90;;;;;;5115710;27;20035;-83
2023/07/13 10:42:24;;;;;;;5.13;1.77;;;23.40;99.90;;;;;;5111301;27;20520;-83
2023/07/13 10:44:50;;;;;;;6.85;1.83;;;23.40;99.90;;;;;;5119042;27;20047;-83
2023/07/13 10:47:17;;;;;;;7.43;2.20;;;23.40;99.90;;;;;;5117837;27;20045;-84
2023/07/13 10:49:44;;;;;;;4.38;1.45;;;23.60;99.90;;;;;;5111268;27;20039;-83
2023/07/13 10:52:41;;;;;;;7.75;1.60;;;23.70;99.90;;;;;;5116713;27;22028;-82
2023/07/13 10:55:38;;;;;;;5.13;1.88;;;23.50;99.90;;;;;;5116427;27;20482;-83
2023/07/13 10:58:19;;;;;;;5.32;2.05;;;23.70;99.90;;;;;;5108840;27;20049;-84
2023/07/13 11:01:17;;;;;;;3.47;1.63;;;23.70;99.90;;;;;;5119473;27;20564;-84
2023/07/13 11:04:03;;;;;;;3.95;1.48;;;23.80;99.90;;;;;;5116496;27;20039;-83
2023/07/13 11:06:33;;;;;;;5.38;1.50;;;23.70;99.90;;;;;;5119107;27;20752;-83
2023/07/13 11:09:23;;;;;;;5.50;0.80;;;23.60;99.90;;;;;;5118588;27;20050;-83
2023/07/13 11:11:49;;;;;;;3.58;1.02;;;23.70;99.90;;;;;;5101453;27;20097;-84
2023/07/13 11:14:30;;;;;;;4.72;1.00;;;23.40;99.90;;;;;;5107539;27;20132;-82
2023/07/13 11:16:55;;;;;;;1.90;0.60;;;23.40;99.90;;;;;;5119287;27;20042;-82
2023/07/13 11:19:21;;;;;;;4.68;1.30;;;23.30;99.90;;;;;;5121113;27;20389;-83
2023/07/13 11:22:05;;;;;;;5.38;1.02;;;23.40;99.90;;;;;;5124552;27;20046;-81
2023/07/13 11:24:50;;;;;;;3.17;0.90;;;23.50;99.90;;;;;;5116465;27;20040;-84
2023/07/13 11:27:45;;;;;;;4.25;1.15;;;23.70;99.90;;;;;;5107318;28;20048;-84
2023/07/13 11:30:29;;;;;;;2.77;0.93;;;23.90;99.90;;;;;;5115990;27;20175;-83
2023/07/13 11:33:07;;;;;;;4.43;1.10;;;24.00;99.90;;;;;;5114217;28;20056;-83
2023/07/13 11:35:36;;;;;;;3.15;0.90;;;24.20;99.90;;;;;;5122416;28;20088;-85
2023/07/13 11:38:03;;;;;;;3.75;0.80;;;24.30;99.90;;;;;;5116252;28;20508;-83
2023/07/13 11:40:30;;;;;;;2.83;1.00;;;24.40;99.90;;;;;;5119691;28;20119;-84
2023/07/13 11:43:07;;;;;;;5.80;1.05;;;24.30;99.90;;;;;;5118936;27;20071;-84
2023/07/13 11:45:32;;;;;;;2.05;0.50;;;24.40;99.90;;;;;;5113391;28;20408;-84
2023/07/13 11:48:00;;;;;;;4.07;1.08;;;24.30;99.90;;;;;;5109729;27;20043;-84
2023/07/13 11:50:27;;;;;;;4.20;0.93;;;24.60;99.90;;;;;;5120767;27;20047;-84
2023/07/13 11:52:54;;;;;;;2.20;0.80;;;24.60;99.90;;;;;;5119379;27;20047;-84
2023/07/13 11:55:21;;;;;;;3.70;0.77;;;24.80;99.90;;;;;;5123603;27;20043;-84
2023/07/13 11:58:03;;;;;;;3.70;0.90;;;25.00;99.90;;;;;;5116735;27;20474;-82
2023/07/13 12:00:32;;;;;;;6.38;0.73;;;25.00;98.30;;;;;;5120237;27;20051;-83
2023/07/13 12:03:00;;;;;;;3.83;0.98;;;25.00;99.90;;;;;;5119787;27;20035;-84
2023/07/13 12:05:26;;;;;;;3.50;1.70;;;25.10;99.70;;;;;;5117237;27;20042;-83
2023/07/13 12:07:54;;;;;;;2.22;0.68;;;25.00;99.20;;;;;;5125123;27;20059;-82
2023/07/13 12:10:28;;;;;;;3.58;0.90;;;25.10;99.80;;;;;;5122142;27;20055;-84
2023/07/13 12:13:01;;;;;;;4.45;0.80;;;25.10;99.70;;;;;;5119593;27;20050;-83
2023/07/13 12:15:46;;;;;;;4.10;1.30;;;24.90;99.50;;;;;;5118524;27;20493;-82
2023/07/13 12:18:15;;;;;;;5.47;0.70;;;24.40;98.90;;;;;;5115927;27;20031;-84
2023/07/13 12:20:40;;;;;;;4.50;1.25;;;23.90;98.60;;;;;;5110184;27;20027;-81
2023/07/13 12:23:27;;;;;;;6.05;1.70;;;23.70;99.60;;;;;;5101900;27;20039;-83
2023/07/13 12:25:53;;;;;;;5.07;1.33;;;23.50;99.90;;;;;;5102567;27;20039;-82
2023/07/13 12:28:32;;;;;;;7.68;1.00;;;23.30;99.90;;;;;;5111127;27;20430;-81
2023/07/13 12:31:03;;;;;;;2.85;0.88;;;23.10;99.90;;;;;;5095921;27;20457;-82
2023/07/13 12:33:32;;;;;;;3.65;0.80;;;23.00;99.70;;;;;;5111471;27;20039;-82
2023/07/13 12:36:01;;;;;;;5.57;0.90;;;23.00;99.90;;;;;;5100560;27;20062;-83
2023/07/13 12:38:27;;;;;;;3.05;0.60;;;23.00;99.80;;;;;;5105291;27;20043;-83
2023/07/13 12:40:54;;;;;;;7.32;1.48;;;22.90;99.00;;;;;;5102839;27;20090;-82
2023/07/13 12:43:23;;;;;;;4.30;1.33;;;22.70;99.00;;;;;;5109106;27;20266;-81
2023/07/13 12:46:04;;;;;;;5.68;0.68;;;22.80;99.90;;;;;;5111741;27;20047;-83
2023/07/13 12:48:39;;;;;;;5.35;0.90;;;23.10;99.90;;;;;;5113982;27;20050;-81
2023/07/13 12:51:11;;;;;;;1.52;0.40;;;23.40;99.90;;;;;;5106958;27;20426;-82